Time;durP1;ratioP1;P1;durP2;ratioP2;P2;SDS_P1;SDS_P2;PMS_P1;PMS_P2;Temp;Humidity;BMP_temperature;BMP_pressure;BME280_temperature;BME280_humidity;BME280_pressure;Samples;Min_cycle;Max_cycle;Signal;HPM_P1;HPM_P2
2023/06/26 00:01:20;;;;;;;9.65;8.65;;;22.90;61.50;;;;;;4792405;29;20051;-87
2023/06/26 00:03:46;;;;;;;10.10;8.38;;;22.90;62.90;;;;;;4793412;29;20058;-89
2023/06/26 00:06:12;;;;;;;9.48;7.85;;;22.90;59.50;;;;;;4778338;29;20042;-88
2023/06/26 00:08:38;;;;;;;9.88;8.02;;;22.70;61.60;;;;;;4807970;29;20050;-89
2023/06/26 00:11:04;;;;;;;11.15;8.27;;;22.70;61.70;;;;;;4807939;29;20050;-89
2023/06/26 00:13:29;;;;;;;9.43;8.38;;;23.10;60.30;;;;;;4797146;29;20054;-87
2023/06/26 00:15:55;;;;;;;9.05;8.15;;;22.60;62.10;;;;;;4783743;29;20046;-90
2023/06/26 00:18:23;;;;;;;8.23;7.32;;;23.00;60.40;;;;;;4832416;29;20115;-87
2023/06/26 00:20:49;;;;;;;8.80;7.90;;;22.90;61.10;;;;;;4769505;29;20069;-89
2023/06/26 00:23:16;;;;;;;9.77;8.07;;;22.60;62.50;;;;;;4824851;29;20056;-90
2023/06/26 00:25:43;;;;;;;9.68;8.43;;;22.60;63.40;;;;;;4825079;29;20065;-89
2023/06/26 00:28:09;;;;;;;9.35;7.93;;;22.60;62.90;;;;;;4808060;29;20058;-88
2023/06/26 00:30:35;;;;;;;10.40;8.18;;;;;;;;;;4807579;29;20047;-89
2023/06/26 00:33:01;;;;;;;9.68;7.97;;;22.40;58.10;;;;;;4777780;29;20054;-91
2023/06/26 00:35:27;;;;;;;9.50;8.45;;;22.50;63.20;;;;;;4807998;29;20050;-87
2023/06/26 00:37:52;;;;;;;8.32;7.53;;;22.50;63.50;;;;;;4807590;29;20416;-90
2023/06/26 00:40:18;;;;;;;8.65;7.82;;;;;;;;;;4823133;29;20043;-89
2023/06/26 00:42:44;;;;;;;8.95;7.85;;;22.50;63.30;;;;;;4824000;29;20060;-93
2023/06/26 00:45:10;;;;;;;8.68;7.88;;;22.60;62.90;;;;;;4792422;29;20466;-90
2023/06/26 00:47:37;;;;;;;8.70;7.88;;;22.40;63.10;;;;;;4807457;29;20539;-90
2023/06/26 00:50:03;;;;;;;9.95;8.55;;;22.50;63.00;;;;;;4792472;29;20054;-88
2023/06/26 00:52:29;;;;;;;11.75;7.88;;;;;;;;;;4823684;29;20070;-87
2023/06/26 00:54:56;;;;;;;8.70;7.82;;;22.50;62.70;;;;;;4777988;29;20057;-90
2023/06/26 00:57:21;;;;;;;11.60;8.30;;;22.50;63.10;;;;;;4824041;29;20106;-91
2023/06/26 00:59:48;;;;;;;9.10;8.07;;;22.40;59.40;;;;;;4823520;29;20046;-91
2023/06/26 01:02:20;;;;;;;9.65;8.55;;;;;;;;;;4807263;29;20050;-87
2023/06/26 01:04:51;;;;;;;9.80;8.57;;;22.40;58.10;;;;;;4807325;29;20051;-87
2023/06/26 01:07:19;;;;;;;9.70;8.65;;;22.40;59.30;;;;;;4822173;29;20054;-90
2023/06/26 01:15:52;;;;;;;10.07;8.98;;;;;;;;;;4780532;29;20047;-92
2023/06/26 01:18:45;;;;;;;13.38;9.07;;;22.40;62.40;;;;;;4810605;29;20050;-89
2023/06/26 01:21:13;;;;;;;9.70;8.70;;;22.50;60.50;;;;;;4758218;30;20074;-89
2023/06/26 01:24:05;;;;;;;10.40;8.15;;;22.50;62.70;;;;;;4773395;30;20134;-87
2023/06/26 01:26:35;;;;;;;10.15;9.10;;;22.40;58.80;;;;;;4773446;30;20063;-90
2023/06/26 01:29:02;;;;;;;10.20;8.38;;;22.30;58.90;;;;;;4773630;30;20054;-87
2023/06/26 01:31:30;;;;;;;11.25;9.27;;;22.40;59.70;;;;;;4773168;30;20070;-87
2023/06/26 01:34:00;;;;;;;9.88;8.63;;;22.40;62.50;;;;;;4744085;30;20459;-88
2023/06/26 01:36:26;;;;;;;11.02;9.07;;;22.70;59.20;;;;;;4788328;30;20067;-92
2023/06/26 01:38:55;;;;;;;9.30;8.00;;;;;;;;;;4759140;30;20540;-91
2023/06/26 01:41:21;;;;;;;10.27;8.68;;;22.50;61.90;;;;;;4759224;30;20055;-91
2023/06/26 01:44:01;;;;;;;9.25;8.45;;;22.20;62.90;;;;;;4758736;30;20413;-88
2023/06/26 01:46:42;;;;;;;11.20;9.23;;;22.70;62.00;;;;;;4788306;30;20059;-87
2023/06/26 01:49:29;;;;;;;13.82;9.93;;;22.90;63.50;;;;;;4772797;30;20519;-88
2023/06/26 01:52:14;;;;;;;14.63;9.65;;;23.10;58.80;;;;;;4787962;29;20141;-87
2023/06/26 01:55:12;;;;;;;11.43;8.88;;;22.50;62.40;;;;;;4810003;29;20099;-87
2023/06/26 01:57:39;;;;;;;13.93;9.68;;;22.50;59.30;;;;;;4801470;29;20462;-88
2023/06/26 02:00:09;;;;;;;12.70;9.68;;;22.30;63.60;;;;;;4824887;29;20115;-89
2023/06/26 02:02:36;;;;;;;13.32;9.95;;;22.40;58.90;;;;;;4809917;29;20460;-88
2023/06/26 02:05:02;;;;;;;12.93;10.68;;;;;;;;;;4809725;29;20129;-88
2023/06/26 02:07:28;;;;;;;10.98;9.88;;;;;;;;;;4809469;29;20472;-87
2023/06/26 02:09:55;;;;;;;11.65;10.35;;;;;;;;;;4809780;29;20098;-87
2023/06/26 02:12:21;;;;;;;12.35;10.35;;;;;;;;;;4825531;29;20058;-87
2023/06/26 02:14:47;;;;;;;12.25;10.95;;;;;;;;;;4794764;29;20067;-90
2023/06/26 02:17:12;;;;;;;11.82;10.63;;;22.30;63.50;;;;;;4810030;29;20054;-88
2023/06/26 02:19:47;;;;;;;12.77;10.55;;;22.10;63.70;;;;;;4793979;29;20420;-86
2023/06/26 02:22:15;;;;;;;14.68;12.48;;;22.10;60.80;;;;;;4809722;29;20062;-87
2023/06/26 02:24:42;;;;;;;13.77;11.43;;;22.10;60.70;;;;;;4794256;29;20053;-87
2023/06/26 02:27:08;;;;;;;15.13;11.48;;;22.20;64.40;;;;;;4825481;29;20526;-91
2023/06/26 02:29:33;;;;;;;13.27;11.90;;;22.20;64.50;;;;;;4809287;29;20085;-90
2023/06/26 02:31:59;;;;;;;12.80;11.45;;;;;;;;;;4810248;29;20082;-88
2023/06/26 02:34:25;;;;;;;12.27;11.07;;;;;;;;;;4811622;29;20054;-91
2023/06/26 02:36:54;;;;;;;12.10;10.93;;;22.30;65.50;;;;;;4812253;29;20134;-87
2023/06/26 02:39:20;;;;;;;14.13;11.93;;;;;;;;;;4812860;29;20125;-88
2023/06/26 02:41:46;;;;;;;14.68;10.68;;;21.80;65.50;;;;;;4811419;29;20129;-87
2023/06/26 02:44:14;;;;;;;12.32;11.23;;;;;;;;;;4809773;29;20142;-87
2023/06/26 02:46:40;;;;;;;13.50;11.40;;;;;;;;;;4809125;29;20480;-88
2023/06/26 02:49:06;;;;;;;12.82;10.70;;;22.00;66.10;;;;;;4779013;29;20058;-87
2023/06/26 02:51:33;;;;;;;12.73;11.43;;;22.10;66.40;;;;;;4793471;29;20516;-87
2023/06/26 02:54:00;;;;;;;13.68;12.23;;;;;;;;;;4825280;29;20149;-89
2023/06/26 02:56:28;;;;;;;13.98;12.15;;;21.90;66.80;;;;;;4809093;29;20392;-88
2023/06/26 02:58:55;;;;;;;13.82;12.02;;;21.60;62.50;;;;;;4824987;29;20420;-87
2023/06/26 03:01:21;;;;;;;13.10;11.80;;;;;;;;;;4808461;29;20082;-89
2023/06/26 03:03:47;;;;;;;13.93;12.10;;;21.70;67.40;;;;;;4824999;29;20038;-87
2023/06/26 03:06:13;;;;;;;13.30;11.55;;;;;;;;;;4808570;29;20110;-88
2023/06/26 03:08:39;;;;;;;14.75;11.15;;;;;;;;;;4793319;29;20046;-87
2023/06/26 03:11:06;;;;;;;13.27;11.88;;;21.70;68.30;;;;;;4793137;29;20142;-89
2023/06/26 03:13:36;;;;;;;13.27;11.90;;;21.70;64.80;;;;;;4808593;29;20051;-87
2023/06/26 03:16:02;;;;;;;12.63;11.43;;;;;;;;;;4808213;29;20057;-89
2023/06/26 03:18:28;;;;;;;15.40;11.30;;;21.40;69.00;;;;;;4778197;29;20412;-88
2023/06/26 03:20:55;;;;;;;12.32;10.73;;;21.70;70.60;;;;;;4793773;29;20054;-87
2023/06/26 03:23:21;;;;;;;12.68;11.38;;;;;;;;;;4825493;29;20408;-88
2023/06/26 03:25:48;;;;;;;14.27;11.80;;;21.60;66.10;;;;;;4793733;29;20054;-87
2023/06/26 03:28:14;;;;;;;12.07;10.88;;;;;;;;;;4809134;29;20049;-90
2023/06/26 03:30:40;;;;;;;12.23;10.98;;;;;;;;;;4808382;29;20411;-89
2023/06/26 03:33:09;;;;;;;16.05;11.30;;;;;;;;;;4793325;29;20054;-89
2023/06/26 03:35:35;;;;;;;11.48;10.27;;;;;;;;;;4792607;29;20052;-87
2023/06/26 03:38:01;;;;;;;12.30;9.95;;;21.40;72.60;;;;;;4793405;29;20046;-87
2023/06/26 03:40:27;;;;;;;12.77;10.93;;;;;;;;;;4808270;29;20085;-88
2023/06/26 03:42:53;;;;;;;13.05;11.65;;;;;;;;;;4793042;29;20145;-88
2023/06/26 03:45:19;;;;;;;13.38;11.05;;;21.40;74.00;;;;;;4778475;29;20050;-87
2023/06/26 03:47:48;;;;;;;12.73;11.43;;;;;;;;;;4778874;29;20415;-92
2023/06/26 03:50:18;;;;;;;16.40;11.70;;;21.50;74.40;;;;;;4793539;29;20142;-88
2023/06/26 03:52:44;;;;;;;14.63;11.10;;;;;;;;;;4778040;29;20070;-92
2023/06/26 03:55:11;;;;;;;15.65;11.43;;;;;;;;;;4793215;29;20129;-90
2023/06/26 03:57:37;;;;;;;14.93;11.60;;;;;;;;;;4824363;29;20511;-93
2023/06/26 04:00:08;;;;;;;12.70;11.35;;;21.40;76.50;;;;;;4808286;29;20050;-89
2023/06/26 04:02:34;;;;;;;12.60;11.30;;;;;;;;;;4824388;29;20428;-88
2023/06/26 04:05:00;;;;;;;11.75;10.55;;;21.10;76.60;;;;;;4792827;29;20137;-86
2023/06/26 04:07:29;;;;;;;12.40;10.88;;;21.20;74.30;;;;;;4778000;29;20046;-87
2023/06/26 04:09:55;;;;;;;13.02;10.13;;;;;;;;;;4824106;29;20050;-89
2023/06/26 04:12:21;;;;;;;10.55;9.02;;;;;;;;;;4777830;29;20089;-88
2023/06/26 04:14:47;;;;;;;11.13;8.80;;;21.40;79.90;;;;;;4822928;29;20053;-92
2023/06/26 04:17:13;;;;;;;13.40;8.18;;;;;;;;;;4824227;29;20154;-93
2023/06/26 04:19:38;;;;;;;18.25;8.25;;;21.40;82.20;;;;;;4792782;29;20047;-90
2023/06/26 04:22:04;;;;;;;11.65;7.75;;;;;;;;;;4824165;29;20563;-91
2023/06/26 04:24:30;;;;;;;15.57;7.80;;;;;;;;;;4807463;29;20053;-91
2023/06/26 04:26:57;;;;;;;10.00;7.85;;;;;;;;;;4777746;29;20140;-87
2023/06/26 04:29:27;;;;;;;10.80;7.47;;;21.40;81.40;;;;;;4822499;29;20051;-90
2023/06/26 04:31:57;;;;;;;14.75;8.20;;;;;;;;;;4807663;29;20515;-88
2023/06/26 04:34:24;;;;;;;16.60;8.18;;;21.50;86.70;;;;;;4823810;29;20179;-91
2023/06/26 04:36:51;;;;;;;11.90;7.68;;;;;;;;;;4792945;29;20412;-88
2023/06/26 04:39:17;;;;;;;14.10;7.70;;;;;;;;;;4807570;29;20058;-88
2023/06/26 04:41:44;;;;;;;9.55;7.07;;;21.40;88.90;;;;;;4807599;29;20637;-86
2023/06/26 04:44:10;;;;;;;12.77;7.57;;;;;;;;;;4823990;29;20046;-85
2023/06/26 04:46:41;;;;;;;21.67;9.10;;;21.20;87.30;;;;;;4779781;29;20133;-89
2023/06/26 04:49:08;;;;;;;15.10;9.30;;;21.10;90.60;;;;;;4811955;29;20080;-88
2023/06/26 04:51:33;;;;;;;15.88;8.23;;;21.30;90.70;;;;;;4813173;29;20062;-88
2023/06/26 04:53:59;;;;;;;17.10;9.95;;;21.20;90.70;;;;;;4815737;29;20061;-86
2023/06/26 04:56:25;;;;;;;16.15;10.15;;;;;;;;;;4833324;29;20050;-87
2023/06/26 04:58:51;;;;;;;16.15;10.43;;;;;;;;;;4816915;29;20121;-91
2023/06/26 05:01:17;;;;;;;17.30;11.02;;;20.90;90.90;;;;;;4812593;29;20114;-87
2023/06/26 05:03:45;;;;;;;20.58;10.63;;;;;;;;;;4797020;29;20046;-87
2023/06/26 05:06:11;;;;;;;17.90;10.13;;;;;;;;;;4811413;29;20054;-89
2023/06/26 05:08:37;;;;;;;15.30;9.90;;;;;;;;;;4781538;29;20046;-91
2023/06/26 05:11:03;;;;;;;12.90;9.00;;;;;;;;;;4780813;29;20046;-87
2023/06/26 05:13:29;;;;;;;14.18;8.25;;;;;;;;;;4795503;29;20062;-87
2023/06/26 05:15:55;;;;;;;16.45;7.82;;;;;;;;;;4780844;29;20042;-87
2023/06/26 05:18:21;;;;;;;13.68;8.25;;;;;;;;;;4795480;29;20106;-87
2023/06/26 05:20:47;;;;;;;16.65;7.88;;;20.70;94.00;;;;;;4812185;29;20085;-85
2023/06/26 05:23:13;;;;;;;12.75;6.90;;;20.80;93.70;;;;;;4826771;29;20042;-87
2023/06/26 05:25:40;;;;;;;9.98;5.78;;;20.50;93.40;;;;;;4826425;29;20569;-87
2023/06/26 05:28:08;;;;;;;13.90;6.55;;;20.40;93.90;;;;;;4825460;29;20042;-88
2023/06/26 05:30:35;;;;;;;16.58;6.80;;;;;;;;;;4795431;29;20057;-89
2023/06/26 05:33:11;;;;;;;13.20;5.18;;;20.60;94.40;;;;;;4795785;29;20054;-88
2023/06/26 05:35:37;;;;;;;10.45;5.55;;;20.60;94.50;;;;;;4829074;29;20058;-91
2023/06/26 05:38:03;;;;;;;8.57;4.82;;;;;;;;;;4828249;29;20518;-88
2023/06/26 05:40:29;;;;;;;14.57;5.93;;;;;;;;;;4829568;29;20090;-86
2023/06/26 05:42:55;;;;;;;16.88;5.18;;;20.20;95.40;;;;;;4810700;29;20098;-86
2023/06/26 05:45:21;;;;;;;13.23;5.28;;;;;;;;;;4810236;29;20129;-86
2023/06/26 05:47:49;;;;;;;8.30;5.68;;;;;;;;;;4810177;29;20106;-88
2023/06/26 05:50:17;;;;;;;8.35;4.72;;;20.30;94.20;;;;;;4825856;29;20058;-88
2023/06/26 05:52:43;;;;;;;12.73;4.93;;;20.10;96.10;;;;;;4826609;29;20058;-95
2023/06/26 05:55:10;;;;;;;14.32;5.32;;;20.10;94.30;;;;;;4811151;29;20098;-89
2023/06/26 05:57:37;;;;;;;20.67;5.45;;;20.00;95.00;;;;;;4795912;29;20061;-86
2023/06/26 06:00:09;;;;;;;11.73;4.93;;;;;;;;;;4811346;29;20058;-89
2023/06/26 06:02:35;;;;;;;13.95;5.28;;;;;;;;;;4798777;29;20058;-86
2023/06/26 06:05:02;;;;;;;7.78;4.53;;;;;;;;;;4829295;29;20496;-87
2023/06/26 06:07:28;;;;;;;17.17;4.72;;;;;;;;;;4780541;29;20133;-85
2023/06/26 06:09:54;;;;;;;16.83;4.60;;;;;;;;;;4795141;29;20189;-86
2023/06/26 06:12:20;;;;;;;7.70;3.67;;;;;;;;;;4826200;29;20082;-86
2023/06/26 06:14:46;;;;;;;12.25;4.18;;;;;;;;;;4824959;29;20591;-86
2023/06/26 06:17:12;;;;;;;15.43;4.15;;;;;;;;;;4825928;29;20057;-85
2023/06/26 06:19:38;;;;;;;16.02;4.13;;;;;;;;;;4779960;29;20058;-87
2023/06/26 06:22:04;;;;;;;14.45;4.25;;;;;;;;;;4810016;29;20058;-86
2023/06/26 06:24:30;;;;;;;20.13;4.00;;;;;;;;;;4810508;29;20054;-88
2023/06/26 06:26:56;;;;;;;13.07;4.32;;;20.30;96.00;;;;;;4825746;29;20061;-86
2023/06/26 06:29:22;;;;;;;10.50;3.95;;;20.20;95.60;;;;;;4794788;29;20054;-90
2023/06/26 06:31:48;;;;;;;6.47;3.25;;;;;;;;;;4810084;29;20073;-86
2023/06/26 06:34:14;;;;;;;11.40;4.38;;;;;;;;;;4809994;29;20058;-87
2023/06/26 06:36:40;;;;;;;4.93;2.78;;;;;;;;;;4780181;29;20054;-87
2023/06/26 06:39:06;;;;;;;7.80;3.80;;;;;;;;;;4779365;29;20053;-86
2023/06/26 06:41:32;;;;;;;10.35;3.42;;;;;;;;;;4809518;29;20058;-86
2023/06/26 06:43:58;;;;;;;8.48;2.85;;;;;;;;;;4808815;29;20061;-87
2023/06/26 06:46:26;;;;;;;12.65;4.00;;;;;;;;;;4778808;29;20054;-87
2023/06/26 06:48:53;;;;;;;9.40;2.85;;;20.50;92.10;;;;;;4809017;29;20420;-87
2023/06/26 06:51:19;;;;;;;8.73;2.83;;;;;;;;;;4793752;29;20134;-89
2023/06/26 06:53:45;;;;;;;7.45;2.85;;;;;;;;;;4808615;29;20508;-87
2023/06/26 06:56:11;;;;;;;7.72;2.58;;;;;;;;;;4778997;29;20051;-87
2023/06/26 06:58:37;;;;;;;10.20;2.70;;;;;;;;;;4793679;29;20058;-90
2023/06/26 07:01:04;;;;;;;5.63;2.28;;;20.50;86.90;;;;;;4809158;29;20051;-83
2023/06/26 07:03:31;;;;;;;10.70;3.30;;;20.60;86.00;;;;;;4808226;29;20519;-83
2023/06/26 07:05:56;;;;;;;6.40;2.63;;;20.80;86.50;;;;;;4778355;29;20050;-82
2023/06/26 07:08:22;;;;;;;7.35;3.05;;;;;;;;;;4778611;29;20424;-83
2023/06/26 07:10:48;;;;;;;7.85;2.42;;;;;;;;;;4793266;29;20082;-82
2023/06/26 07:13:15;;;;;;;8.75;2.35;;;;;;;;;;4778347;29;20050;-83
2023/06/26 07:15:41;;;;;;;10.80;2.42;;;;;;;;;;4808232;29;20099;-83
2023/06/26 07:18:06;;;;;;;4.72;2.25;;;20.80;84.20;;;;;;4792999;29;20050;-83
2023/06/26 07:20:32;;;;;;;6.88;1.85;;;;;;;;;;4778620;29;20183;-83
2023/06/26 07:22:58;;;;;;;8.10;3.05;;;20.60;83.20;;;;;;4809412;29;20062;-91
2023/06/26 07:25:24;;;;;;;5.85;2.28;;;;;;;;;;4764659;29;20087;-90
2023/06/26 07:27:50;;;;;;;7.10;2.17;;;;;;;;;;4794542;29;20052;-87
2023/06/26 07:30:16;;;;;;;4.35;2.35;;;;;;;;;;4779396;29;20479;-88
2023/06/26 07:32:45;;;;;;;10.32;1.98;;;20.70;77.30;;;;;;4808796;29;20196;-90
2023/06/26 07:35:11;;;;;;;5.55;1.42;;;;;;;;;;4778560;29;20051;-87
2023/06/26 07:37:37;;;;;;;4.13;1.70;;;;;;;;;;4779277;29;20065;-87
2023/06/26 07:40:03;;;;;;;5.80;2.42;;;;;;;;;;4809195;29;20052;-88
2023/06/26 07:42:30;;;;;;;22.55;2.67;;;;;;;;;;4809677;29;20073;-87
2023/06/26 07:44:56;;;;;;;2.92;1.70;;;;;;;;;;4780270;29;20133;-92
2023/06/26 07:47:22;;;;;;;5.55;2.10;;;;;;;;;;4809938;29;20050;-87
2023/06/26 07:49:48;;;;;;;6.53;2.17;;;;;;;;;;4779073;29;20085;-87
2023/06/26 07:52:15;;;;;;;4.10;2.40;;;21.10;75.20;;;;;;4809241;29;20062;-91
2023/06/26 07:54:41;;;;;;;6.43;2.13;;;20.90;77.50;;;;;;4808984;29;20054;-92
2023/06/26 07:57:07;;;;;;;5.18;2.00;;;21.10;76.70;;;;;;4808247;29;20057;-87
2023/06/26 07:59:33;;;;;;;6.75;1.42;;;;;;;;;;4778971;29;20053;-91
2023/06/26 08:01:59;;;;;;;6.28;2.03;;;;;;;;;;4778752;29;20050;-90
2023/06/26 08:04:28;;;;;;;7.07;2.30;;;21.30;74.40;;;;;;4807679;29;20058;-83
2023/06/26 08:06:55;;;;;;;8.07;2.10;;;21.10;77.20;;;;;;4807553;29;20104;-83
2023/06/26 08:09:24;;;;;;;5.05;1.73;;;21.00;77.20;;;;;;4823743;29;20058;-84
2023/06/26 08:11:50;;;;;;;6.40;2.33;;;20.80;77.20;;;;;;4823849;29;20046;-85
2023/06/26 08:14:16;;;;;;;5.10;2.13;;;21.00;73.20;;;;;;4807326;29;20047;-84
2023/06/26 08:16:43;;;;;;;3.78;2.05;;;21.00;72.80;;;;;;4807127;29;20052;-84
2023/06/26 08:19:10;;;;;;;4.00;2.00;;;;;;;;;;4807145;29;20104;-85
2023/06/26 08:21:35;;;;;;;3.40;1.75;;;21.00;75.80;;;;;;4807960;29;20572;-84
2023/06/26 08:24:02;;;;;;;4.78;2.10;;;21.10;75.80;;;;;;4808063;29;20046;-83
2023/06/26 08:26:28;;;;;;;4.18;2.05;;;;;;;;;;4792869;29;20058;-84
2023/06/26 08:28:54;;;;;;;7.47;2.75;;;;;;;;;;4792376;29;20077;-84
2023/06/26 08:31:21;;;;;;;6.78;2.38;;;;;;;;;;4807440;29;20424;-83
2023/06/26 08:33:47;;;;;;;6.85;2.25;;;;;;;;;;4807415;29;20137;-82
2023/06/26 08:36:13;;;;;;;4.75;1.90;;;;;;;;;;4807294;29;20073;-84
2023/06/26 08:38:40;;;;;;;4.47;2.20;;;21.10;76.10;;;;;;4807054;29;20106;-84
2023/06/26 08:41:10;;;;;;;6.60;1.98;;;21.00;70.80;;;;;;4791893;29;20197;-84
2023/06/26 08:43:36;;;;;;;4.32;1.90;;;21.30;75.00;;;;;;4807058;29;20054;-83
2023/06/26 08:46:03;;;;;;;4.05;2.63;;;21.40;74.70;;;;;;4762303;29;20061;-84
2023/06/26 08:48:36;;;;;;;6.95;2.60;;;21.30;74.40;;;;;;4806688;29;20058;-83
2023/06/26 08:51:08;;;;;;;7.00;2.20;;;21.40;71.70;;;;;;4806696;29;20116;-83
2023/06/26 08:53:44;;;;;;;3.63;2.15;;;21.40;74.80;;;;;;4806687;29;20058;-83
2023/06/26 08:56:14;;;;;;;8.52;2.63;;;21.30;73.90;;;;;;4807382;29;20059;-83
2023/06/26 08:58:41;;;;;;;5.82;2.13;;;;;;;;;;4807177;29;20508;-84
2023/06/26 09:01:08;;;;;;;5.68;2.33;;;21.40;68.50;;;;;;4807092;29;20077;-83
2023/06/26 09:03:35;;;;;;;4.93;2.17;;;21.30;71.90;;;;;;4807346;29;20073;-84
2023/06/26 09:06:01;;;;;;;2.88;1.98;;;;;;;;;;4791735;29;20119;-83
2023/06/26 09:08:27;;;;;;;4.72;2.25;;;;;;;;;;4806973;29;20058;-83
2023/06/26 09:10:53;;;;;;;9.77;2.15;;;;;;;;;;4806864;29;20046;-83
2023/06/26 09:13:19;;;;;;;4.18;2.33;;;;;;;;;;4806993;29;20051;-84
2023/06/26 09:15:46;;;;;;;3.65;2.17;;;21.50;68.80;;;;;;4797745;29;20417;-84
2023/06/26 09:18:12;;;;;;;8.27;2.95;;;21.40;70.90;;;;;;4814579;29;20051;-84
2023/06/26 09:20:39;;;;;;;5.82;1.98;;;21.40;71.20;;;;;;4798060;29;20054;-83
2023/06/26 09:23:06;;;;;;;5.40;2.30;;;21.40;70.70;;;;;;4827219;29;20049;-82
2023/06/26 09:25:32;;;;;;;3.38;2.03;;;21.50;69.20;;;;;;4805813;29;20051;-84
2023/06/26 09:27:57;;;;;;;4.68;2.47;;;21.50;67.90;;;;;;4806866;29;20124;-83
2023/06/26 09:30:24;;;;;;;3.40;2.65;;;;;;;;;;4823048;29;20134;-82
2023/06/26 09:32:50;;;;;;;3.58;2.38;;;;;;;;;;4823515;29;20488;-84
2023/06/26 09:35:17;;;;;;;5.63;2.63;;;;;;;;;;4825248;29;20082;-83
2023/06/26 09:37:43;;;;;;;5.60;2.80;;;21.70;66.20;;;;;;4826685;29;20054;-84
2023/06/26 09:40:09;;;;;;;4.95;3.05;;;21.40;65.60;;;;;;4825374;29;20083;-84
2023/06/26 09:42:36;;;;;;;5.78;3.35;;;;;;;;;;4825139;29;20058;-83
2023/06/26 09:45:02;;;;;;;3.65;2.38;;;21.50;62.90;;;;;;4824759;29;20054;-84
2023/06/26 09:47:31;;;;;;;8.43;2.70;;;21.80;63.50;;;;;;4809979;29;20054;-84
2023/06/26 09:49:57;;;;;;;2.60;2.38;;;;;;;;;;4824909;29;20114;-84
2023/06/26 09:52:26;;;;;;;4.03;2.63;;;21.70;67.10;;;;;;4809229;29;20050;-82
2023/06/26 09:55:08;;;;;;;6.55;2.88;;;22.00;64.60;;;;;;4809799;29;20050;-83
2023/06/26 09:57:35;;;;;;;6.53;2.83;;;22.00;63.80;;;;;;4810059;29;20415;-84
2023/06/26 10:00:02;;;;;;;3.47;2.40;;;22.10;59.60;;;;;;4825147;29;20480;-85
2023/06/26 10:02:28;;;;;;;6.35;3.42;;;22.00;62.40;;;;;;4809955;29;20504;-84
2023/06/26 10:04:54;;;;;;;3.10;2.33;;;22.10;62.60;;;;;;4825414;29;20060;-85
2023/06/26 10:07:22;;;;;;;5.88;2.55;;;22.00;62.40;;;;;;4840412;29;20576;-83
2023/06/26 10:09:50;;;;;;;14.23;3.08;;;21.90;62.40;;;;;;4809937;29;20054;-84
2023/06/26 10:12:19;;;;;;;4.50;3.03;;;22.30;59.40;;;;;;4794880;29;20050;-84
2023/06/26 10:14:46;;;;;;;4.70;3.60;;;;;;;;;;4840346;29;20051;-86
2023/06/26 10:17:19;;;;;;;5.25;3.38;;;21.80;60.80;;;;;;4840177;29;20054;-82
2023/06/26 10:19:47;;;;;;;5.28;2.80;;;21.80;58.90;;;;;;4809488;29;20510;-87
2023/06/26 10:22:17;;;;;;;5.85;2.78;;;21.90;61.60;;;;;;4809863;29;20089;-82
2023/06/26 10:24:48;;;;;;;3.00;2.22;;;21.80;60.40;;;;;;4824564;29;20045;-82
2023/06/26 10:27:14;;;;;;;4.90;3.00;;;;;;;;;;4809451;29;20111;-88
2023/06/26 10:29:47;;;;;;;4.38;3.17;;;22.00;58.10;;;;;;4825633;29;20518;-83
2023/06/26 10:32:14;;;;;;;6.00;2.72;;;22.00;60.90;;;;;;4794429;29;20054;-82
2023/06/26 10:34:40;;;;;;;6.78;3.15;;;21.80;62.30;;;;;;4809476;29;20465;-82
2023/06/26 10:37:07;;;;;;;3.40;2.83;;;;;;;;;;4824602;29;20424;-84
2023/06/26 10:39:54;;;;;;;4.97;2.58;;;22.10;60.80;;;;;;4809772;29;20058;-84
2023/06/26 10:42:34;;;;;;;5.22;2.17;;;22.10;59.50;;;;;;4823725;29;20081;-83
2023/06/26 10:45:11;;;;;;;8.05;2.30;;;22.20;56.00;;;;;;4793675;29;20053;-82
2023/06/26 10:47:38;;;;;;;4.90;2.22;;;22.00;57.80;;;;;;4839422;29;20046;-82
2023/06/26 10:50:28;;;;;;;3.58;2.85;;;22.40;58.30;;;;;;4823480;29;20058;-82
2023/06/26 10:53:24;;;;;;;5.78;2.78;;;22.20;58.20;;;;;;4804320;29;20473;-82
2023/06/26 10:56:03;;;;;;;3.17;2.03;;;22.20;57.90;;;;;;4808791;29;20110;-84
2023/06/26 10:58:40;;;;;;;2.80;2.28;;;22.00;57.90;;;;;;4793789;29;20138;-82
2023/06/26 11:01:13;;;;;;;4.22;1.85;;;22.00;54.50;;;;;;4808846;29;20092;-85
2023/06/26 11:03:49;;;;;;;4.30;2.25;;;22.00;56.50;;;;;;4808637;29;20046;-82
2023/06/26 11:06:21;;;;;;;7.32;2.10;;;21.90;56.60;;;;;;4824379;29;20042;-82
2023/06/26 11:08:58;;;;;;;8.60;1.88;;;22.10;59.00;;;;;;4823678;29;20043;-82
2023/06/26 11:12:04;;;;;;;4.88;1.88;;;21.90;58.00;;;;;;4808670;29;20056;-82
2023/06/26 11:14:32;;;;;;;4.57;1.85;;;22.00;57.20;;;;;;4807331;29;20069;-83
2023/06/26 11:16:58;;;;;;;6.63;2.28;;;;;;;;;;4808191;29;20046;-84
2023/06/26 11:19:27;;;;;;;2.13;1.40;;;22.20;55.20;;;;;;4808279;29;20086;-83
2023/06/26 11:21:59;;;;;;;6.15;2.13;;;22.10;55.80;;;;;;4808475;29;20050;-83
2023/06/26 11:24:25;;;;;;;5.50;2.40;;;22.30;58.10;;;;;;4793422;29;20502;-84
2023/06/26 11:26:51;;;;;;;3.40;1.33;;;;;;;;;;4808214;29;20051;-82
2023/06/26 11:29:23;;;;;;;5.22;1.65;;;;;;;;;;4838836;29;20082;-84
2023/06/26 11:31:59;;;;;;;6.05;1.60;;;22.00;54.30;;;;;;4823162;29;20137;-83
2023/06/26 11:34:30;;;;;;;5.80;1.83;;;21.80;57.40;;;;;;4808524;29;20069;-83
2023/06/26 11:36:57;;;;;;;9.30;1.42;;;22.00;54.90;;;;;;4808162;29;20122;-83
2023/06/26 11:39:22;;;;;;;2.78;1.17;;;22.00;55.10;;;;;;4793023;29;20054;-82
2023/06/26 11:41:49;;;;;;;6.43;1.70;;;22.20;52.70;;;;;;4822946;29;20053;-83
2023/06/26 11:44:19;;;;;;;4.60;1.38;;;;;;;;;;4838197;29;20102;-82
2023/06/26 11:46:45;;;;;;;3.00;1.55;;;22.10;55.10;;;;;;4807048;29;20520;-84
2023/06/26 11:49:11;;;;;;;5.07;1.90;;;;;;;;;;4807677;29;20046;-84
2023/06/26 11:51:38;;;;;;;3.08;1.80;;;;;;;;;;4823157;29;20111;-83
2023/06/26 11:54:04;;;;;;;4.80;1.67;;;22.00;52.20;;;;;;4822733;29;20058;-83
2023/06/26 11:56:30;;;;;;;5.47;1.70;;;22.30;56.20;;;;;;4822370;29;20054;-83
2023/06/26 11:59:08;;;;;;;4.82;1.52;;;22.10;55.60;;;;;;4807626;29;20042;-84
2023/06/26 12:01:42;;;;;;;7.38;1.80;;;22.10;54.90;;;;;;4807709;29;20112;-83
2023/06/26 12:04:09;;;;;;;5.50;1.70;;;22.30;54.70;;;;;;4807627;29;20472;-83
2023/06/26 12:06:39;;;;;;;5.97;2.00;;;22.40;52.90;;;;;;4792653;29;20056;-84
2023/06/26 12:09:09;;;;;;;4.80;1.70;;;22.30;50.90;;;;;;4807459;29;20049;-84
2023/06/26 12:11:38;;;;;;;17.85;2.38;;;22.40;53.80;;;;;;4822343;29;20160;-83
2023/06/26 12:14:05;;;;;;;9.82;3.35;;;22.10;54.50;;;;;;4822569;29;20092;-84
2023/06/26 12:16:33;;;;;;;3.22;1.73;;;22.10;51.80;;;;;;4792406;29;20114;-84
2023/06/26 12:19:05;;;;;;;5.78;1.83;;;22.30;54.70;;;;;;4822214;29;20050;-83
2023/06/26 12:21:37;;;;;;;3.80;1.60;;;22.10;55.20;;;;;;4822395;29;20053;-83
2023/06/26 12:24:04;;;;;;;8.23;1.67;;;22.10;54.40;;;;;;4807220;29;20111;-83
2023/06/26 12:26:30;;;;;;;4.22;1.60;;;22.20;54.00;;;;;;4822043;29;20057;-84
2023/06/26 12:29:08;;;;;;;5.57;2.58;;;22.20;53.90;;;;;;4807582;29;20440;-83
2023/06/26 12:31:35;;;;;;;4.00;1.80;;;22.10;52.50;;;;;;4806854;29;20058;-83
2023/06/26 12:34:08;;;;;;;8.30;2.40;;;22.20;50.90;;;;;;4823443;29;20125;-84
2023/06/26 12:36:40;;;;;;;10.40;2.20;;;22.50;53.10;;;;;;4821470;29;20050;-84
2023/06/26 12:39:10;;;;;;;5.03;1.80;;;22.20;49.90;;;;;;4823698;29;20054;-84
2023/06/26 12:41:53;;;;;;;3.03;1.77;;;22.30;53.20;;;;;;4823263;29;20389;-84
2023/06/26 12:44:20;;;;;;;6.43;2.90;;;22.20;53.70;;;;;;4811705;29;20134;-82
2023/06/26 12:46:50;;;;;;;5.68;1.38;;;22.10;49.90;;;;;;4827493;29;20056;-82
2023/06/26 12:49:16;;;;;;;3.90;1.20;;;22.20;49.60;;;;;;4822212;29;20512;-82
2023/06/26 12:51:42;;;;;;;5.75;2.10;;;22.20;53.00;;;;;;4806969;29;20050;-82
2023/06/26 12:54:09;;;;;;;7.63;2.72;;;22.30;52.70;;;;;;4837049;29;20070;-83
2023/06/26 12:56:35;;;;;;;4.18;1.80;;;;;;;;;;4806948;29;20424;-82
2023/06/26 12:59:01;;;;;;;7.20;1.50;;;;;;;;;;4823229;29;20089;-82
2023/06/26 13:01:28;;;;;;;4.53;1.65;;;;;;;;;;4837285;29;20426;-82
2023/06/26 13:03:54;;;;;;;5.78;2.03;;;22.60;54.30;;;;;;4837297;29;20058;-83
2023/06/26 13:06:20;;;;;;;6.35;1.73;;;22.40;53.50;;;;;;4807281;29;20138;-82
2023/06/26 13:08:46;;;;;;;2.95;1.40;;;22.50;53.90;;;;;;4826022;29;20054;-82
2023/06/26 13:11:11;;;;;;;2.58;1.60;;;22.60;54.30;;;;;;4810423;29;20521;-82
2023/06/26 13:13:38;;;;;;;3.65;1.70;;;;;;;;;;4810330;29;20137;-84
2023/06/26 13:16:05;;;;;;;7.80;2.10;;;;;;;;;;4825901;29;20046;-82
2023/06/26 13:18:30;;;;;;;9.63;1.98;;;22.00;55.40;;;;;;4826610;29;20083;-82
2023/06/26 13:20:57;;;;;;;5.15;1.75;;;;;;;;;;4810226;29;20042;-83
2023/06/26 13:23:23;;;;;;;5.15;2.03;;;;;;;;;;4811008;29;20047;-82
2023/06/26 13:25:50;;;;;;;4.40;1.65;;;22.20;55.60;;;;;;4828403;29;20048;-81
2023/06/26 13:28:16;;;;;;;3.63;1.45;;;;;;;;;;4830683;29;20063;-84
2023/06/26 13:30:42;;;;;;;4.70;2.35;;;;;;;;;;4844725;29;20502;-82
2023/06/26 13:33:10;;;;;;;3.92;1.80;;;22.30;49.90;;;;;;4844546;29;20050;-83